Alverton, Pennsylvania
Current Conditions -  °F | °C
As of 7:53 PM on Wednesday 22 Oct 2014 (Local Time) from KAGC Reporting Station
Overcast Overcast  
Wind Chill: 43°   Ceiling: 1700
Heat Index: 47°   Visibility: 10mi
Dew Point: 38°   Wind: 8mph
Humidity: 71%   Direction: 340°NNW
Pressure: 30.16"   Gusts: 21mph
Location:  40.14°N, 79.59°W
Report Text: KAGC 222353Z 34007G18KT 10SM OVC017 08/03 A3016 RMK AO2 SLP222 T00830033 10100 20083 53004
Loading
Personal Weather Stations






























Interactive Weather Map
Tropical Storm Tracking
New forecast layout! Learn more

10-Day Weather Forecast

Advertisements
Track Severe Weather on mobile